sensor_id;sensor_type;location;lat;lon;timestamp;pressure;altitude;pressure_sealevel;temperature;humidity
596;BME280;19946;49.306;11.350;2023-05-20T00:00:44;96580.94;;;11.95;100.00
596;BME280;19946;49.306;11.350;2023-05-20T00:03:47;96582.72;;;11.94;100.00
596;BME280;19946;49.306;11.350;2023-05-20T00:06:47;96567.03;;;11.86;100.00
596;BME280;19946;49.306;11.350;2023-05-20T00:09:48;96575.19;;;11.91;100.00
596;BME280;19946;49.306;11.350;2023-05-20T00:12:48;96547.91;;;11.78;100.00
596;BME280;19946;49.306;11.350;2023-05-20T00:15:48;96534.22;;;11.76;100.00
596;BME280;19946;49.306;11.350;2023-05-20T00:18:49;96567.84;;;11.96;100.00
596;BME280;19946;49.306;11.350;2023-05-20T00:21:49;96552.81;;;11.90;100.00
596;BME280;19946;49.306;11.350;2023-05-20T00:24:49;96569.75;;;12.04;100.00
596;BME280;19946;49.306;11.350;2023-05-20T00:27:50;96507.44;;;11.65;100.00
596;BME280;19946;49.306;11.350;2023-05-20T00:30:51;96555.13;;;11.84;100.00
596;BME280;19946;49.306;11.350;2023-05-20T00:33:51;96558.56;;;11.94;100.00
596;BME280;19946;49.306;11.350;2023-05-20T00:36:52;96574.41;;;12.00;100.00
596;BME280;19946;49.306;11.350;2023-05-20T00:39:53;96533.41;;;11.75;100.00
596;BME280;19946;49.306;11.350;2023-05-20T00:42:53;96545.72;;;11.92;100.00
596;BME280;19946;49.306;11.350;2023-05-20T00:45:54;96573.59;;;12.00;100.00
596;BME280;19946;49.306;11.350;2023-05-20T00:48:54;96559.81;;;11.99;100.00
596;BME280;19946;49.306;11.350;2023-05-20T00:51:55;96560.19;;;11.95;100.00
596;BME280;19946;49.306;11.350;2023-05-20T00:54:56;96537.09;;;11.82;100.00
596;BME280;19946;49.306;11.350;2023-05-20T00:57:57;96551.03;;;11.91;100.00
596;BME280;19946;49.306;11.350;2023-05-20T01:00:57;96482.56;;;11.44;100.00
596;BME280;19946;49.306;11.350;2023-05-20T01:03:58;96542.53;;;11.79;100.00
596;BME280;19946;49.306;11.350;2023-05-20T01:07:01;96530.91;;;11.74;100.00
596;BME280;19946;49.306;11.350;2023-05-20T01:10:02;96519.16;;;11.69;100.00
596;BME280;19946;49.306;11.350;2023-05-20T01:13:04;96502.06;;;11.57;100.00
596;BME280;19946;49.306;11.350;2023-05-20T01:16:09;96521.91;;;11.68;100.00
596;BME280;19946;49.306;11.350;2023-05-20T01:19:30;96545.44;;;11.76;100.00
596;BME280;19946;49.306;11.350;2023-05-20T01:22:36;96528.72;;;11.69;100.00
596;BME280;19946;49.306;11.350;2023-05-20T01:25:37;96521.84;;;11.49;100.00
596;BME280;19946;49.306;11.350;2023-05-20T01:28:39;96511.34;;;11.41;100.00
596;BME280;19946;49.306;11.350;2023-05-20T01:31:43;96533.72;;;11.42;100.00
596;BME280;19946;49.306;11.350;2023-05-20T01:34:47;96516.88;;;11.17;100.00
596;BME280;19946;49.306;11.350;2023-05-20T01:37:49;96533.44;;;11.35;100.00
596;BME280;19946;49.306;11.350;2023-05-20T01:40:52;96528.25;;;11.35;100.00
596;BME280;19946;49.306;11.350;2023-05-20T01:43:54;96538.88;;;11.32;100.00
596;BME280;19946;49.306;11.350;2023-05-20T01:46:54;96525.66;;;11.35;100.00
596;BME280;19946;49.306;11.350;2023-05-20T01:49:55;96530.84;;;11.35;100.00
596;BME280;19946;49.306;11.350;2023-05-20T01:52:55;96515.66;;;11.21;100.00
596;BME280;19946;49.306;11.350;2023-05-20T01:55:55;96518.28;;;11.30;100.00
596;BME280;19946;49.306;11.350;2023-05-20T01:58:56;96515.78;;;11.19;100.00
596;BME280;19946;49.306;11.350;2023-05-20T02:01:57;96520.44;;;11.25;100.00
596;BME280;19946;49.306;11.350;2023-05-20T02:04:58;96491.50;;;11.11;100.00
596;BME280;19946;49.306;11.350;2023-05-20T02:07:58;96484.38;;;11.03;100.00
596;BME280;19946;49.306;11.350;2023-05-20T02:10:58;96494.34;;;11.08;100.00
596;BME280;19946;49.306;11.350;2023-05-20T02:13:58;96505.69;;;11.16;100.00
596;BME280;19946;49.306;11.350;2023-05-20T02:16:59;96505.97;;;11.13;100.00
596;BME280;19946;49.306;11.350;2023-05-20T02:20:00;96468.94;;;10.92;100.00
596;BME280;19946;49.306;11.350;2023-05-20T02:23:04;96485.75;;;11.17;100.00
596;BME280;19946;49.306;11.350;2023-05-20T02:26:05;96482.47;;;11.05;100.00
596;BME280;19946;49.306;11.350;2023-05-20T02:29:05;96453.50;;;10.81;100.00
596;BME280;19946;49.306;11.350;2023-05-20T02:32:05;96493.34;;;10.99;100.00
596;BME280;19946;49.306;11.350;2023-05-20T02:35:06;96492.56;;;11.08;100.00
596;BME280;19946;49.306;11.350;2023-05-20T02:38:06;96478.47;;;10.91;100.00
596;BME280;19946;49.306;11.350;2023-05-20T02:41:07;96501.00;;;11.01;100.00
596;BME280;19946;49.306;11.350;2023-05-20T02:44:07;96470.53;;;10.83;100.00
596;BME280;19946;49.306;11.350;2023-05-20T02:47:09;96517.09;;;11.04;100.00
596;BME280;19946;49.306;11.350;2023-05-20T02:50:09;96515.47;;;11.03;100.00
596;BME280;19946;49.306;11.350;2023-05-20T02:53:11;96502.66;;;11.02;100.00
596;BME280;19946;49.306;11.350;2023-05-20T02:56:11;96462.44;;;10.67;100.00
596;BME280;19946;49.306;11.350;2023-05-20T02:59:12;96507.47;;;10.85;100.00
596;BME280;19946;49.306;11.350;2023-05-20T03:02:12;96496.69;;;10.80;100.00
596;BME280;19946;49.306;11.350;2023-05-20T03:05:13;96518.41;;;10.89;100.00
596;BME280;19946;49.306;11.350;2023-05-20T03:08:14;96523.59;;;10.89;100.00
596;BME280;19946;49.306;11.350;2023-05-20T03:11:14;96517.47;;;10.90;100.00
596;BME280;19946;49.306;11.350;2023-05-20T03:14:15;96502.56;;;10.82;100.00
596;BME280;19946;49.306;11.350;2023-05-20T03:17:15;96467.94;;;10.53;100.00
596;BME280;19946;49.306;11.350;2023-05-20T03:20:16;96519.72;;;10.83;100.00
596;BME280;19946;49.306;11.350;2023-05-20T03:23:17;96511.97;;;10.83;100.00
596;BME280;19946;49.306;11.350;2023-05-20T03:26:18;96488.81;;;10.61;100.00
596;BME280;19946;49.306;11.350;2023-05-20T03:29:18;96508.91;;;10.69;100.00
596;BME280;19946;49.306;11.350;2023-05-20T03:32:19;96526.63;;;10.73;100.00
596;BME280;19946;49.306;11.350;2023-05-20T03:35:20;96533.34;;;10.76;100.00
596;BME280;19946;49.306;11.350;2023-05-20T03:38:20;96531.44;;;10.78;100.00
596;BME280;19946;49.306;11.350;2023-05-20T03:41:21;96504.94;;;10.65;100.00
596;BME280;19946;49.306;11.350;2023-05-20T03:44:22;96528.03;;;10.77;100.00
596;BME280;19946;49.306;11.350;2023-05-20T03:47:22;96495.66;;;10.62;100.00
596;BME280;19946;49.306;11.350;2023-05-20T03:50:23;96516.69;;;10.69;100.00
596;BME280;19946;49.306;11.350;2023-05-20T03:53:23;96514.97;;;10.79;100.00
596;BME280;19946;49.306;11.350;2023-05-20T03:56:23;96454.66;;;10.37;100.00
596;BME280;19946;49.306;11.350;2023-05-20T03:59:24;96512.44;;;10.68;100.00
596;BME280;19946;49.306;11.350;2023-05-20T04:02:24;96495.66;;;10.62;100.00
596;BME280;19946;49.306;11.350;2023-05-20T04:05:25;96511.22;;;10.72;100.00
596;BME280;19946;49.306;11.350;2023-05-20T04:08:25;96496.50;;;10.72;100.00
596;BME280;19946;49.306;11.350;2023-05-20T04:11:26;96518.94;;;10.92;100.00
596;BME280;19946;49.306;11.350;2023-05-20T04:14:26;96520.75;;;10.92;100.00
596;BME280;19946;49.306;11.350;2023-05-20T04:17:30;96498.19;;;10.83;100.00
596;BME280;19946;49.306;11.350;2023-05-20T04:20:30;96478.56;;;10.80;100.00
596;BME280;19946;49.306;11.350;2023-05-20T04:23:31;96495.38;;;10.95;100.00
596;BME280;19946;49.306;11.350;2023-05-20T04:26:32;96500.44;;;10.97;100.00
596;BME280;19946;49.306;11.350;2023-05-20T04:29:32;96501.59;;;11.14;100.00
596;BME280;19946;49.306;11.350;2023-05-20T04:32:33;96511.44;;;11.20;100.00
596;BME280;19946;49.306;11.350;2023-05-20T04:35:34;96514.47;;;11.34;100.00
596;BME280;19946;49.306;11.350;2023-05-20T04:38:38;96516.03;;;11.66;100.00
596;BME280;19946;49.306;11.350;2023-05-20T04:41:39;96517.78;;;11.56;100.00
596;BME280;19946;49.306;11.350;2023-05-20T04:44:39;96523.84;;;11.26;100.00
596;BME280;19946;49.306;11.350;2023-05-20T04:47:40;96517.06;;;11.34;100.00
596;BME280;19946;49.306;11.350;2023-05-20T04:50:41;96461.00;;;11.33;100.00
596;BME280;19946;49.306;11.350;2023-05-20T04:53:42;96496.06;;;11.47;100.00
596;BME280;19946;49.306;11.350;2023-05-20T04:56:43;96461.81;;;11.34;100.00
596;BME280;19946;49.306;11.350;2023-05-20T04:59:43;96502.06;;;11.57;100.00
596;BME280;19946;49.306;11.350;2023-05-20T05:02:44;96491.56;;;11.49;100.00
596;BME280;19946;49.306;11.350;2023-05-20T05:05:46;96493.78;;;11.73;100.00
596;BME280;19946;49.306;11.350;2023-05-20T05:08:46;96478.09;;;12.03;100.00
596;BME280;19946;49.306;11.350;2023-05-20T05:11:46;96497.06;;;12.23;100.00
596;BME280;19946;49.306;11.350;2023-05-20T05:14:47;96497.34;;;11.91;100.00
596;BME280;19946;49.306;11.350;2023-05-20T05:17:48;96493.25;;;11.79;100.00
596;BME280;19946;49.306;11.350;2023-05-20T05:20:57;96491.91;;;11.94;100.00
596;BME280;19946;49.306;11.350;2023-05-20T05:23:58;96489.91;;;12.44;100.00
596;BME280;19946;49.306;11.350;2023-05-20T05:26:58;96491.25;;;12.58;100.00
596;BME280;19946;49.306;11.350;2023-05-20T05:29:58;96494.16;;;12.92;100.00
596;BME280;19946;49.306;11.350;2023-05-20T05:32:59;96496.16;;;13.35;100.00
596;BME280;19946;49.306;11.350;2023-05-20T05:35:59;96456.72;;;12.85;100.00
596;BME280;19946;49.306;11.350;2023-05-20T05:39:01;96490.69;;;13.38;100.00
596;BME280;19946;49.306;11.350;2023-05-20T05:42:02;96473.16;;;13.40;100.00
596;BME280;19946;49.306;11.350;2023-05-20T05:45:03;96473.72;;;13.07;100.00
596;BME280;19946;49.306;11.350;2023-05-20T05:48:04;96461.38;;;13.19;100.00
596;BME280;19946;49.306;11.350;2023-05-20T05:51:04;96491.16;;;13.69;100.00
596;BME280;19946;49.306;11.350;2023-05-20T05:54:06;96477.47;;;13.67;100.00
596;BME280;19946;49.306;11.350;2023-05-20T05:57:06;96480.94;;;14.11;100.00
596;BME280;19946;49.306;11.350;2023-05-20T06:00:09;96473.06;;;13.85;100.00
596;BME280;19946;49.306;11.350;2023-05-20T06:03:18;96483.81;;;13.82;100.00
596;BME280;19946;49.306;11.350;2023-05-20T06:06:19;96480.38;;;14.00;100.00
596;BME280;19946;49.306;11.350;2023-05-20T06:09:19;96462.63;;;14.21;100.00
596;BME280;19946;49.306;11.350;2023-05-20T06:12:19;96481.03;;;14.02;100.00
596;BME280;19946;49.306;11.350;2023-05-20T06:15:20;96449.00;;;13.83;100.00
596;BME280;19946;49.306;11.350;2023-05-20T06:18:20;96474.00;;;14.20;100.00
596;BME280;19946;49.306;11.350;2023-05-20T06:21:23;96469.03;;;14.70;100.00
596;BME280;19946;49.306;11.350;2023-05-20T06:24:23;96425.56;;;14.27;100.00
596;BME280;19946;49.306;11.350;2023-05-20T06:27:24;96440.69;;;14.75;100.00
596;BME280;19946;49.306;11.350;2023-05-20T06:30:24;96425.41;;;14.80;100.00
596;BME280;19946;49.306;11.350;2023-05-20T06:33:25;96458.44;;;14.46;100.00
596;BME280;19946;49.306;11.350;2023-05-20T06:36:27;96432.75;;;14.07;100.00
596;BME280;19946;49.306;11.350;2023-05-20T06:39:28;96449.47;;;14.74;100.00
596;BME280;19946;49.306;11.350;2023-05-20T06:42:28;96456.16;;;14.77;100.00
596;BME280;19946;49.306;11.350;2023-05-20T06:45:39;96429.97;;;14.86;100.00
596;BME280;19946;49.306;11.350;2023-05-20T06:48:56;96446.13;;;14.90;100.00
596;BME280;19946;49.306;11.350;2023-05-20T06:51:56;96451.31;;;15.24;100.00
596;BME280;19946;49.306;11.350;2023-05-20T06:54:58;96418.84;;;15.26;100.00
596;BME280;19946;49.306;11.350;2023-05-20T06:57:58;96446.66;;;15.52;100.00
596;BME280;19946;49.306;11.350;2023-05-20T07:00:59;96434.72;;;15.49;100.00
596;BME280;19946;49.306;11.350;2023-05-20T07:04:00;96437.97;;;15.35;100.00
596;BME280;19946;49.306;11.350;2023-05-20T07:07:00;96434.44;;;15.60;100.00
596;BME280;19946;49.306;11.350;2023-05-20T07:10:01;96409.84;;;15.63;100.00
596;BME280;19946;49.306;11.350;2023-05-20T07:13:04;96438.06;;;15.67;100.00
596;BME280;19946;49.306;11.350;2023-05-20T07:16:05;96443.06;;;15.53;100.00
596;BME280;19946;49.306;11.350;2023-05-20T07:19:05;96397.72;;;15.46;100.00
596;BME280;19946;49.306;11.350;2023-05-20T07:22:07;96436.44;;;16.07;100.00
596;BME280;19946;49.306;11.350;2023-05-20T07:25:26;96432.38;;;15.96;100.00
596;BME280;19946;49.306;11.350;2023-05-20T07:28:27;96428.28;;;15.94;100.00
596;BME280;19946;49.306;11.350;2023-05-20T07:31:28;96428.47;;;16.00;100.00
596;BME280;19946;49.306;11.350;2023-05-20T07:34:28;96422.81;;;15.39;100.00
596;BME280;19946;49.306;11.350;2023-05-20T07:37:29;96418.97;;;16.16;100.00
596;BME280;19946;49.306;11.350;2023-05-20T07:40:29;96409.50;;;15.90;100.00
596;BME280;19946;49.306;11.350;2023-05-20T07:43:30;96401.03;;;15.96;100.00
596;BME280;19946;49.306;11.350;2023-05-20T07:46:31;96396.13;;;15.93;100.00
596;BME280;19946;49.306;11.350;2023-05-20T07:49:31;96381.41;;;15.52;100.00
596;BME280;19946;49.306;11.350;2023-05-20T07:52:31;96393.13;;;16.37;100.00
596;BME280;19946;49.306;11.350;2023-05-20T07:55:33;96381.13;;;16.59;100.00
596;BME280;19946;49.306;11.350;2023-05-20T07:58:34;96422.09;;;16.83;100.00
596;BME280;19946;49.306;11.350;2023-05-20T08:01:34;96421.66;;;16.71;100.00
596;BME280;19946;49.306;11.350;2023-05-20T08:04:36;96419.53;;;16.66;100.00
596;BME280;19946;49.306;11.350;2023-05-20T08:07:37;96419.50;;;17.44;100.00
596;BME280;19946;49.306;11.350;2023-05-20T08:10:37;96419.25;;;17.31;100.00
596;BME280;19946;49.306;11.350;2023-05-20T08:13:38;96410.38;;;17.94;100.00
596;BME280;19946;49.306;11.350;2023-05-20T08:16:39;96394.50;;;17.73;100.00
596;BME280;19946;49.306;11.350;2023-05-20T08:19:39;96377.63;;;17.44;100.00
596;BME280;19946;49.306;11.350;2023-05-20T08:22:39;96379.03;;;17.55;100.00
596;BME280;19946;49.306;11.350;2023-05-20T08:25:40;96390.47;;;18.52;100.00
596;BME280;19946;49.306;11.350;2023-05-20T08:28:41;96386.22;;;18.51;100.00
596;BME280;19946;49.306;11.350;2023-05-20T08:31:42;96380.84;;;18.00;100.00
596;BME280;19946;49.306;11.350;2023-05-20T08:34:42;96359.63;;;18.39;100.00
596;BME280;19946;49.306;11.350;2023-05-20T08:37:43;96385.75;;;19.06;97.37
596;BME280;19946;49.306;11.350;2023-05-20T08:40:43;96385.06;;;18.53;100.00
596;BME280;19946;49.306;11.350;2023-05-20T08:43:43;96389.47;;;19.12;100.00
596;BME280;19946;49.306;11.350;2023-05-20T08:46:45;96378.59;;;19.51;99.49
596;BME280;19946;49.306;11.350;2023-05-20T08:49:45;96369.00;;;20.07;92.84
596;BME280;19946;49.306;11.350;2023-05-20T08:52:46;96390.53;;;18.81;100.00
596;BME280;19946;49.306;11.350;2023-05-20T08:56:00;96390.41;;;18.89;94.52
596;BME280;19946;49.306;11.350;2023-05-20T08:59:02;96391.88;;;18.10;100.00
596;BME280;19946;49.306;11.350;2023-05-20T09:02:03;96359.75;;;18.90;100.00
596;BME280;19946;49.306;11.350;2023-05-20T09:05:04;96359.63;;;18.39;100.00
596;BME280;19946;49.306;11.350;2023-05-20T09:08:06;96359.09;;;18.44;100.00
596;BME280;19946;49.306;11.350;2023-05-20T09:11:08;96381.56;;;19.62;100.00
596;BME280;19946;49.306;11.350;2023-05-20T09:14:09;96384.22;;;19.90;94.43
596;BME280;19946;49.306;11.350;2023-05-20T09:17:09;96376.25;;;20.05;85.39
596;BME280;19946;49.306;11.350;2023-05-20T09:20:10;96369.06;;;19.64;100.00
596;BME280;19946;49.306;11.350;2023-05-20T09:23:10;96376.78;;;19.94;92.59
596;BME280;19946;49.306;11.350;2023-05-20T09:26:11;96387.16;;;20.58;74.49
596;BME280;19946;49.306;11.350;2023-05-20T09:29:11;96356.56;;;20.91;76.64
596;BME280;19946;49.306;11.350;2023-05-20T09:32:12;96380.69;;;20.95;69.36
596;BME280;19946;49.306;11.350;2023-05-20T09:35:13;96382.19;;;21.17;74.01
596;BME280;19946;49.306;11.350;2023-05-20T09:38:14;96364.97;;;20.67;77.32
596;BME280;19946;49.306;11.350;2023-05-20T09:41:15;96353.13;;;20.50;73.21
596;BME280;19946;49.306;11.350;2023-05-20T09:44:16;96370.16;;;19.98;69.92
596;BME280;19946;49.306;11.350;2023-05-20T09:47:18;96391.28;;;20.11;75.31
596;BME280;19946;49.306;11.350;2023-05-20T09:50:20;96383.38;;;21.08;67.05
596;BME280;19946;49.306;11.350;2023-05-20T09:53:21;96378.53;;;20.36;82.96
596;BME280;19946;49.306;11.350;2023-05-20T09:56:22;96364.44;;;21.26;73.76
596;BME280;19946;49.306;11.350;2023-05-20T09:59:25;96355.22;;;22.09;71.00
596;BME280;19946;49.306;11.350;2023-05-20T10:02:27;96370.16;;;21.56;68.31
596;BME280;19946;49.306;11.350;2023-05-20T10:05:35;96360.28;;;22.24;60.80
596;BME280;19946;49.306;11.350;2023-05-20T10:09:04;96328.63;;;22.30;66.42
596;BME280;19946;49.306;11.350;2023-05-20T10:12:30;96364.72;;;21.70;64.47
596;BME280;19946;49.306;11.350;2023-05-20T10:19:26;96335.19;;;19.33;82.57
596;BME280;19946;49.306;11.350;2023-05-20T10:22:28;96340.84;;;19.73;79.29
596;BME280;19946;49.306;11.350;2023-05-20T10:25:28;96346.22;;;20.83;73.61
596;BME280;19946;49.306;11.350;2023-05-20T10:28:36;96317.72;;;20.18;77.22
596;BME280;19946;49.306;11.350;2023-05-20T10:31:43;96332.34;;;20.55;73.15
596;BME280;19946;49.306;11.350;2023-05-20T10:34:46;96360.75;;;21.20;76.20
596;BME280;19946;49.306;11.350;2023-05-20T10:37:47;96339.97;;;21.65;68.83
596;BME280;19946;49.306;11.350;2023-05-20T10:40:48;96321.13;;;21.48;75.00
596;BME280;19946;49.306;11.350;2023-05-20T10:43:58;96309.88;;;21.06;71.00
596;BME280;19946;49.306;11.350;2023-05-20T10:47:02;96329.19;;;21.27;73.83
596;BME280;19946;49.306;11.350;2023-05-20T10:50:03;96293.78;;;22.02;65.36
596;BME280;19946;49.306;11.350;2023-05-20T10:53:05;96307.97;;;22.01;75.28
596;BME280;19946;49.306;11.350;2023-05-20T10:56:19;96325.59;;;22.27;66.30
596;BME280;19946;49.306;11.350;2023-05-20T10:59:20;96312.63;;;21.92;61.49
596;BME280;19946;49.306;11.350;2023-05-20T11:02:22;96323.16;;;21.59;62.74
596;BME280;19946;49.306;11.350;2023-05-20T11:05:26;96325.59;;;22.20;64.06
596;BME280;19946;49.306;11.350;2023-05-20T11:08:29;96289.94;;;21.52;65.58
596;BME280;19946;49.306;11.350;2023-05-20T11:11:30;96301.47;;;22.10;63.42
596;BME280;19946;49.306;11.350;2023-05-20T11:14:31;96309.13;;;21.32;70.17
596;BME280;19946;49.306;11.350;2023-05-20T11:17:31;96269.47;;;20.73;67.10
596;BME280;19946;49.306;11.350;2023-05-20T11:20:31;96284.63;;;21.91;74.63
596;BME280;19946;49.306;11.350;2023-05-20T11:23:35;96292.34;;;21.86;68.13
596;BME280;19946;49.306;11.350;2023-05-20T11:26:36;96294.41;;;20.90;67.74
596;BME280;19946;49.306;11.350;2023-05-20T11:29:36;96299.69;;;20.90;83.03
596;BME280;19946;49.306;11.350;2023-05-20T11:32:37;96303.69;;;21.40;72.20
596;BME280;19946;49.306;11.350;2023-05-20T11:35:53;96299.09;;;21.01;72.85
596;BME280;19946;49.306;11.350;2023-05-20T11:38:53;96281.44;;;20.82;75.02
596;BME280;19946;49.306;11.350;2023-05-20T11:41:54;96290.88;;;21.24;80.21
596;BME280;19946;49.306;11.350;2023-05-20T11:44:55;96300.72;;;20.96;70.48
596;BME280;19946;49.306;11.350;2023-05-20T11:48:00;96291.25;;;20.54;71.26
596;BME280;19946;49.306;11.350;2023-05-20T11:51:01;96268.03;;;20.29;81.64
596;BME280;19946;49.306;11.350;2023-05-20T11:54:02;96282.75;;;20.24;78.02
596;BME280;19946;49.306;11.350;2023-05-20T11:57:03;96294.09;;;20.24;75.75
596;BME280;19946;49.306;11.350;2023-05-20T12:00:05;96287.06;;;20.72;93.17
596;BME280;19946;49.306;11.350;2023-05-20T12:03:06;96297.91;;;21.10;78.19
596;BME280;19946;49.306;11.350;2023-05-20T12:06:10;96306.03;;;20.27;78.46
596;BME280;19946;49.306;11.350;2023-05-20T12:09:11;96298.91;;;20.49;93.43
596;BME280;19946;49.306;11.350;2023-05-20T12:12:13;96307.56;;;20.90;88.26
596;BME280;19946;49.306;11.350;2023-05-20T12:15:13;96284.38;;;21.20;87.11
596;BME280;19946;49.306;11.350;2023-05-20T12:18:13;96292.41;;;20.92;74.63
596;BME280;19946;49.306;11.350;2023-05-20T12:21:13;96294.16;;;21.46;88.45
596;BME280;19946;49.306;11.350;2023-05-20T12:24:14;96270.75;;;20.97;79.73
596;BME280;19946;49.306;11.350;2023-05-20T12:27:14;96285.56;;;20.50;90.27
596;BME280;19946;49.306;11.350;2023-05-20T12:30:19;96283.81;;;20.64;100.00
596;BME280;19946;49.306;11.350;2023-05-20T12:33:20;96290.97;;;20.90;83.58
596;BME280;19946;49.306;11.350;2023-05-20T12:36:20;96265.16;;;20.24;96.07
596;BME280;19946;49.306;11.350;2023-05-20T12:39:21;96272.22;;;20.52;87.07
596;BME280;19946;49.306;11.350;2023-05-20T12:42:21;96271.34;;;20.86;84.51
596;BME280;19946;49.306;11.350;2023-05-20T12:45:22;96261.66;;;20.45;82.61
596;BME280;19946;49.306;11.350;2023-05-20T12:48:22;96282.56;;;20.25;89.97
596;BME280;19946;49.306;11.350;2023-05-20T12:51:22;96258.59;;;20.07;99.51
596;BME280;19946;49.306;11.350;2023-05-20T12:54:23;96247.41;;;20.81;100.00
596;BME280;19946;49.306;11.350;2023-05-20T12:57:27;96270.28;;;20.32;95.78
596;BME280;19946;49.306;11.350;2023-05-20T13:00:27;96266.31;;;20.97;100.00
596;BME280;19946;49.306;11.350;2023-05-20T13:03:28;96244.28;;;21.31;74.49
596;BME280;19946;49.306;11.350;2023-05-20T13:06:28;96278.34;;;21.66;77.76
596;BME280;19946;49.306;11.350;2023-05-20T13:09:29;96249.13;;;21.08;76.49
596;BME280;19946;49.306;11.350;2023-05-20T13:12:29;96243.63;;;20.96;85.62
596;BME280;19946;49.306;11.350;2023-05-20T13:15:30;96211.34;;;20.68;72.19
596;BME280;19946;49.306;11.350;2023-05-20T13:18:32;96263.56;;;21.52;83.39
596;BME280;19946;49.306;11.350;2023-05-20T13:21:32;96261.09;;;21.24;78.25
596;BME280;19946;49.306;11.350;2023-05-20T13:24:34;96239.94;;;20.84;72.44
596;BME280;19946;49.306;11.350;2023-05-20T13:27:34;96247.50;;;21.13;67.37
596;BME280;19946;49.306;11.350;2023-05-20T13:30:34;96241.59;;;20.98;73.47
596;BME280;19946;49.306;11.350;2023-05-20T13:33:35;96253.44;;;21.29;76.14
596;BME280;19946;49.306;11.350;2023-05-20T13:36:35;96246.97;;;21.51;73.89
596;BME280;19946;49.306;11.350;2023-05-20T13:39:36;96236.16;;;21.06;65.55
596;BME280;19946;49.306;11.350;2023-05-20T13:42:36;96238.44;;;21.29;68.37
596;BME280;19946;49.306;11.350;2023-05-20T13:45:37;96232.31;;;21.16;65.27
596;BME280;19946;49.306;11.350;2023-05-20T13:48:37;96225.50;;;20.67;71.90
596;BME280;19946;49.306;11.350;2023-05-20T13:51:37;96245.13;;;21.25;75.82
596;BME280;19946;49.306;11.350;2023-05-20T13:54:38;96230.28;;;21.11;80.73
596;BME280;19946;49.306;11.350;2023-05-20T13:57:39;96225.69;;;21.39;71.72
596;BME280;19946;49.306;11.350;2023-05-20T14:00:39;96233.38;;;21.61;70.81
596;BME280;19946;49.306;11.350;2023-05-20T14:03:40;96240.25;;;21.22;65.33
596;BME280;19946;49.306;11.350;2023-05-20T14:06:41;96230.53;;;21.42;67.34
596;BME280;19946;49.306;11.350;2023-05-20T14:09:41;96206.59;;;21.31;66.74
596;BME280;19946;49.306;11.350;2023-05-20T14:12:42;96209.47;;;21.49;65.08
596;BME280;19946;49.306;11.350;2023-05-20T14:15:47;96219.38;;;21.54;63.12
596;BME280;19946;49.306;11.350;2023-05-20T14:18:48;96197.06;;;21.69;70.04
596;BME280;19946;49.306;11.350;2023-05-20T14:21:48;96178.44;;;21.58;71.67
596;BME280;19946;49.306;11.350;2023-05-20T14:24:49;96210.03;;;21.77;65.50
596;BME280;19946;49.306;11.350;2023-05-20T14:27:49;96167.50;;;21.21;66.90
596;BME280;19946;49.306;11.350;2023-05-20T14:30:50;96211.22;;;22.08;64.45
596;BME280;19946;49.306;11.350;2023-05-20T14:33:50;96205.41;;;22.44;66.96
596;BME280;19946;49.306;11.350;2023-05-20T14:36:51;96164.66;;;23.09;57.08
596;BME280;19946;49.306;11.350;2023-05-20T14:39:51;96191.13;;;23.77;57.90
596;BME280;19946;49.306;11.350;2023-05-20T14:42:51;96180.44;;;22.91;56.19
596;BME280;19946;49.306;11.350;2023-05-20T14:45:51;96160.28;;;22.58;57.38
596;BME280;19946;49.306;11.350;2023-05-20T14:48:52;96188.44;;;22.71;59.92
596;BME280;19946;49.306;11.350;2023-05-20T14:51:52;96169.41;;;22.94;61.98
596;BME280;19946;49.306;11.350;2023-05-20T14:54:52;96170.66;;;22.53;60.82
596;BME280;19946;49.306;11.350;2023-05-20T14:57:53;96177.53;;;21.97;60.69
596;BME280;19946;49.306;11.350;2023-05-20T15:00:53;96188.97;;;21.64;62.85
596;BME280;19946;49.306;11.350;2023-05-20T15:03:53;96175.81;;;21.31;65.20
596;BME280;19946;49.306;11.350;2023-05-20T15:06:54;96175.59;;;21.06;63.04
596;BME280;19946;49.306;11.350;2023-05-20T15:09:54;96199.28;;;20.93;65.33
596;BME280;19946;49.306;11.350;2023-05-20T15:12:55;96183.28;;;20.95;66.40
596;BME280;19946;49.306;11.350;2023-05-20T15:15:55;96175.00;;;21.18;70.08
596;BME280;19946;49.306;11.350;2023-05-20T15:18:55;96151.13;;;21.26;66.93
596;BME280;19946;49.306;11.350;2023-05-20T15:21:55;96174.00;;;21.52;66.18
596;BME280;19946;49.306;11.350;2023-05-20T15:24:56;96182.91;;;21.31;68.86
596;BME280;19946;49.306;11.350;2023-05-20T15:27:56;96171.75;;;21.62;70.19
596;BME280;19946;49.306;11.350;2023-05-20T15:30:56;96169.91;;;21.82;69.57
596;BME280;19946;49.306;11.350;2023-05-20T15:33:56;96163.34;;;21.98;61.91
596;BME280;19946;49.306;11.350;2023-05-20T15:36:57;96165.19;;;21.91;63.48
596;BME280;19946;49.306;11.350;2023-05-20T15:39:57;96162.25;;;21.47;66.44
596;BME280;19946;49.306;11.350;2023-05-20T15:42:57;96159.03;;;21.39;66.27
596;BME280;19946;49.306;11.350;2023-05-20T15:46:00;96160.19;;;21.56;70.63
596;BME280;19946;49.306;11.350;2023-05-20T15:49:00;96152.44;;;21.88;64.86
596;BME280;19946;49.306;11.350;2023-05-20T15:52:00;96141.41;;;21.20;67.12
596;BME280;19946;49.306;11.350;2023-05-20T15:55:01;96106.94;;;20.62;70.85
596;BME280;19946;49.306;11.350;2023-05-20T15:58:02;96152.91;;;20.99;69.68
596;BME280;19946;49.306;11.350;2023-05-20T16:01:02;96131.47;;;21.08;71.62
596;BME280;19946;49.306;11.350;2023-05-20T16:04:02;96128.22;;;21.06;75.38
596;BME280;19946;49.306;11.350;2023-05-20T16:07:03;96151.50;;;21.16;74.05
596;BME280;19946;49.306;11.350;2023-05-20T16:10:04;96132.28;;;21.09;71.58